Time;durP1;ratioP1;P1;durP2;ratioP2;P2;SDS_P1;SDS_P2;PMS_P1;PMS_P2;Temp;Humidity;BMP_temperature;BMP_pressure;BME280_temperature;BME280_humidity;BME280_pressure;Samples;Min_cycle;Max_cycle;Signal;HPM_P1;HPM_P2
2023/03/19 00:00:07;;;;;;;;;;;;;;;4.75;65.87;100185.69;335326;29;1199;-75
2023/03/19 00:00:17;;;;;;;;;;;;;;;4.74;65.80;100179.66;338532;29;1406;-75
2023/03/19 00:00:28;;;;;;;;;;;;;;;4.73;65.68;100182.25;339181;29;1409;-75
2023/03/19 00:00:38;;;;;;;;;;;;;;;4.73;66.01;100185.72;338256;29;1209;-75
2023/03/19 00:00:48;;;;;;;;;;;;;;;4.72;66.07;100184.00;336210;29;1627;-76
2023/03/19 00:01:02;;;;;;;;;;;;;;;4.68;66.04;100185.75;332107;29;1915;-75
2023/03/19 00:01:12;;;;;;;;;;;;;;;4.65;66.27;100187.50;332088;29;935;-75
2023/03/19 00:01:22;;;;;;;;;;;;;;;4.63;66.44;100186.66;336929;29;1288;-75
2023/03/19 00:01:32;;;;;;;;;;;;;;;4.63;66.34;100189.25;335697;29;1385;-75
2023/03/19 00:01:43;;;;;;;;;;;;;;;4.62;66.30;100183.19;338062;29;1328;-75
2023/03/19 00:01:53;;;;;;;;;;;;;;;4.62;66.45;100184.94;333117;29;1240;-75
2023/03/19 00:02:03;;;;;;;;;;;;;;;4.62;66.47;100182.34;331097;29;1481;-75
2023/03/19 00:02:13;;;;;;;;;;;;;;;4.62;66.37;100184.94;329522;29;1383;-75
2023/03/19 00:02:24;;;;;;;;;;;;;;;4.60;66.36;100184.94;333127;29;1469;-75
2023/03/19 00:02:34;;;;;;;;;;;;;;;4.61;66.35;100183.22;334497;29;1878;-75
2023/03/19 00:02:49;;;;;;;;;;;;;;;4.61;66.47;100183.22;335381;29;2055;-75
2023/03/19 00:03:00;;;;;;;;;;;;;;;4.60;66.46;100182.34;335046;29;2256;-75
2023/03/19 00:03:10;;;;;;;;;;;;;;;4.61;66.32;100181.47;335854;29;878;-76
2023/03/19 00:03:20;;;;;;;;;;;;;;;4.62;66.52;100182.34;331883;29;1582;-75
2023/03/19 00:03:31;;;;;;;;;;;;;;;4.63;66.65;100181.47;330847;29;1272;-75
2023/03/19 00:03:41;;;;;;;;;;;;;;;4.62;66.17;100184.94;335726;29;1415;-75
2023/03/19 00:03:51;;;;;;;;;;;;;;;4.62;66.61;100182.34;334299;29;1481;-75
2023/03/19 00:04:02;;;;;;;;;;;;;;;4.62;66.69;100180.63;333345;29;1564;-75
2023/03/19 00:04:12;;;;;;;;;;;;;;;4.62;66.70;100179.75;332741;29;1856;-75
2023/03/19 00:04:23;;;;;;;;;;;;;;;4.63;66.57;100178.88;333103;29;803;-75
2023/03/19 00:04:33;;;;;;;;;;;;;;;4.61;66.61;100188.41;331847;29;2175;-75
2023/03/19 00:04:44;;;;;;;;;;;;;;;4.60;66.49;100181.50;329773;29;2082;-75
2023/03/19 00:04:54;;;;;;;;;;;;;;;4.59;66.80;100185.81;327014;30;800;-75
2023/03/19 00:05:05;;;;;;;;;;;;;;;4.58;66.68;100175.47;326392;30;2394;-75
2023/03/19 00:05:15;;;;;;;;;;;;;;;4.58;66.77;100176.31;328113;29;2277;-74
2023/03/19 00:05:25;;;;;;;;;;;;;;;4.59;66.64;100177.19;330626;29;1323;-76
2023/03/19 00:05:36;;;;;;;;;;;;;;;4.59;66.67;100174.59;325441;30;1759;-74
2023/03/19 00:05:49;;;;;;;;;;;;;;;4.59;66.82;100174.59;324923;30;1176;-74
2023/03/19 00:06:00;;;;;;;;;;;;;;;4.58;66.60;100183.22;325579;29;1866;-75
2023/03/19 00:06:10;;;;;;;;;;;;;;;4.59;66.73;100174.59;328225;30;1219;-75
2023/03/19 00:06:21;;;;;;;;;;;;;;;4.58;66.77;100176.31;326372;30;2207;-74
2023/03/19 00:06:32;;;;;;;;;;;;;;;4.60;66.73;100178.91;322524;30;2679;-74
2023/03/19 00:06:42;;;;;;;;;;;;;;;4.61;66.69;100188.41;321191;30;2801;-74
2023/03/19 00:06:52;;;;;;;;;;;;;;;4.60;66.85;100176.31;322116;30;1240;-75
2023/03/19 00:07:02;;;;;;;;;;;;;;;4.59;66.79;100179.78;319314;30;2915;-74
2023/03/19 00:07:13;;;;;;;;;;;;;;;4.58;66.81;100178.06;316063;30;3056;-74
2023/03/19 00:07:23;;;;;;;;;;;;;;;4.57;66.92;100186.69;318777;31;838;-76
2023/03/19 00:07:34;;;;;;;;;;;;;;;4.56;66.89;100179.78;318722;30;3102;-75
2023/03/19 00:07:44;;;;;;;;;;;;;;;4.54;66.92;100184.13;318036;30;3711;-74
2023/03/19 00:07:54;;;;;;;;;;;;;;;4.54;66.79;100189.31;319770;30;1250;-76
2023/03/19 00:08:05;;;;;;;;;;;;;;;4.54;66.91;100181.53;318003;30;2410;-75
2023/03/19 00:08:15;;;;;;;;;;;;;;;4.53;66.89;100185.00;316500;31;2961;-75
2023/03/19 00:08:25;;;;;;;;;;;;;;;4.54;66.91;100181.53;316485;31;1400;-75
2023/03/19 00:08:35;;;;;;;;;;;;;;;4.55;66.93;100183.25;313277;31;3266;-75
2023/03/19 00:08:46;;;;;;;;;;;;;;;4.54;66.98;100181.53;311899;31;4286;-75
2023/03/19 00:08:56;;;;;;;;;;;;;;;4.53;66.90;100182.41;312769;31;1443;-75
2023/03/19 00:09:06;;;;;;;;;;;;;;;4.53;67.06;100187.59;307450;31;4894;-75
2023/03/19 00:09:16;;;;;;;;;;;;;;;4.54;67.00;100189.31;308501;31;4196;-75
2023/03/19 00:09:27;;;;;;;;;;;;;;;4.54;67.21;100184.13;308990;31;3900;-75
2023/03/19 00:09:38;;;;;;;;;;;;;;;4.53;67.16;100188.44;308609;32;1404;-75
2023/03/19 00:09:48;;;;;;;;;;;;;;;4.53;67.05;100187.59;307939;32;4142;-75
2023/03/19 00:09:58;;;;;;;;;;;;;;;4.50;67.15;100185.03;303584;32;3329;-75
2023/03/19 00:10:09;;;;;;;;;;;;;;;4.48;67.31;100186.75;302299;32;1249;-75
2023/03/19 00:10:20;;;;;;;;;;;;;;;4.49;67.35;100188.47;302141;32;3831;-75
2023/03/19 00:10:30;;;;;;;;;;;;;;;4.49;67.33;100188.47;302666;32;4296;-74
2023/03/19 00:10:40;;;;;;;;;;;;;;;4.48;67.36;100187.63;302297;32;1282;-74
2023/03/19 00:10:50;;;;;;;;;;;;;;;4.49;67.14;100188.47;300257;32;5908;-74
2023/03/19 00:11:07;;;;;;;;;;;;;;;4.49;67.16;100189.34;298012;32;6546;-76
2023/03/19 00:11:17;;;;;;;;;;;;;;;4.50;67.37;100187.59;297535;33;6024;-77
2023/03/19 00:11:27;;;;;;;;;;;;;;;4.51;67.18;100191.91;296219;33;7768;-75
2023/03/19 00:11:38;;;;;;;;;;;;;;;4.51;67.21;100194.50;296154;33;1275;-75
2023/03/19 00:11:48;;;;;;;;;;;;;;;4.52;67.44;100191.06;294689;33;6622;-75
2023/03/19 00:11:58;;;;;;;;;;;;;;;4.53;67.26;100195.38;294484;33;5901;-75
2023/03/19 00:12:09;;;;;;;;;;;;;;;4.52;67.32;100186.72;297144;33;869;-74
2023/03/19 00:12:19;;;;;;;;;;;;;;;4.53;67.35;100191.03;290497;33;4431;-75
2023/03/19 00:12:30;;;;;;;;;;;;;;;4.53;67.36;100183.25;290054;33;7209;-75
2023/03/19 00:12:40;;;;;;;;;;;;;;;4.54;67.01;100191.91;292219;33;1323;-76
2023/03/19 00:12:51;;;;;;;;;;;;;;;4.54;67.20;100187.56;286343;34;7075;-76
2023/03/19 00:13:01;;;;;;;;;;;;;;;4.55;67.22;100183.25;285122;34;7349;-75
2023/03/19 00:13:11;;;;;;;;;;;;;;;4.55;67.37;100188.44;286499;34;901;-75
2023/03/19 00:13:21;;;;;;;;;;;;;;;4.57;67.17;100186.69;281132;34;8908;-75
2023/03/19 00:13:31;;;;;;;;;;;;;;;4.57;67.06;100186.69;280092;34;8794;-75
2023/03/19 00:15:49;;;;;;;;;;;;;;;4.61;67.38;100183.22;2502517;27;19936;-76
2023/03/19 00:16:00;;;;;;;;;;;;;;;4.60;67.31;100186.69;356144;27;983;-76
2023/03/19 00:16:10;;;;;;;;;;;;;;;4.60;67.14;100186.69;354603;27;1284;-76
2023/03/19 00:16:20;;;;;;;;;;;;;;;4.60;67.24;100187.53;351776;28;1316;-76
2023/03/19 00:16:31;;;;;;;;;;;;;;;4.61;67.39;100183.22;350345;28;1313;-76
2023/03/19 00:16:41;;;;;;;;;;;;;;;4.61;67.34;100183.22;350427;28;3712;-75
2023/03/19 00:16:51;;;;;;;;;;;;;;;4.59;67.34;100183.22;351180;28;2886;-75
2023/03/19 00:17:01;;;;;;;;;;;;;;;4.60;67.20;100182.34;347671;28;1222;-75
2023/03/19 00:17:11;;;;;;;;;;;;;;;4.60;67.14;100184.09;351762;28;1279;-75
2023/03/19 00:17:22;;;;;;;;;;;;;;;4.61;67.18;100183.22;350372;28;1354;-75
2023/03/19 00:17:32;;;;;;;;;;;;;;;4.59;67.31;100183.22;350361;28;1308;-75
2023/03/19 00:17:42;;;;;;;;;;;;;;;4.60;67.36;100181.50;349476;28;1442;-75
2023/03/19 00:17:53;;;;;;;;;;;;;;;4.58;67.17;100185.81;350428;28;1235;-75
2023/03/19 00:18:05;;;;;;;;;;;;;;;4.56;67.46;100179.78;350477;28;851;-75
2023/03/19 00:18:15;;;;;;;;;;;;;;;4.56;67.39;100179.78;351797;28;871;-75
2023/03/19 00:18:25;;;;;;;;;;;;;;;4.54;67.61;100181.53;351885;28;951;-76
2023/03/19 00:18:36;;;;;;;;;;;;;;;4.53;67.64;100179.81;351804;28;1293;-76
2023/03/19 00:18:46;;;;;;;;;;;;;;;4.54;67.88;100178.94;351854;28;800;-75
2023/03/19 00:18:56;;;;;;;;;;;;;;;4.53;67.30;100179.81;350397;28;1740;-75
2023/03/19 00:19:07;;;;;;;;;;;;;;;4.53;67.52;100178.09;350333;28;1330;-75
2023/03/19 00:19:17;;;;;;;;;;;;;;;4.53;67.79;100188.44;349011;28;1315;-76
2023/03/19 00:19:28;;;;;;;;;;;;;;;4.54;67.69;100176.34;349147;28;1353;-75
2023/03/19 00:19:38;;;;;;;;;;;;;;;4.54;67.72;100184.13;349004;28;1005;-75
2023/03/19 00:19:48;;;;;;;;;;;;;;;4.52;67.99;100178.09;347647;28;1422;-75
2023/03/19 00:19:59;;;;;;;;;;;;;;;4.51;68.08;100177.22;346941;28;884;-76
2023/03/19 00:20:10;;;;;;;;;;;;;;;4.52;67.59;100180.69;347776;28;1033;-75
2023/03/19 00:20:21;;;;;;;;;;;;;;;4.51;68.27;100179.81;350521;28;780;-75
2023/03/19 00:20:31;;;;;;;;;;;;;;;4.49;67.88;100181.56;348903;28;1236;-75
2023/03/19 00:20:41;;;;;;;;;;;;;;;4.49;68.04;100175.53;347672;28;1436;-76
2023/03/19 00:20:51;;;;;;;;;;;;;;;4.48;67.73;100178.97;347665;28;1219;-76
2023/03/19 00:21:02;;;;;;;;;;;;;;;4.48;67.89;100178.97;347679;28;769;-75
2023/03/19 00:21:12;;;;;;;;;;;;;;;4.47;68.00;100180.72;346221;28;1332;-76
2023/03/19 00:21:22;;;;;;;;;;;;;;;4.49;67.91;100180.72;347728;28;1227;-76
2023/03/19 00:21:33;;;;;;;;;;;;;;;4.49;67.94;100180.72;347633;28;878;-75
2023/03/19 00:21:43;;;;;;;;;;;;;;;4.47;68.08;100175.53;346126;28;1204;-75
2023/03/19 00:21:53;;;;;;;;;;;;;;;4.46;68.14;100186.78;344879;28;1220;-76
2023/03/19 00:22:04;;;;;;;;;;;;;;;4.46;68.11;100181.59;348920;28;1320;-75
2023/03/19 00:22:14;;;;;;;;;;;;;;;4.45;68.21;100181.59;350371;28;1082;-76
2023/03/19 00:22:24;;;;;;;;;;;;;;;4.44;68.32;100179.88;346150;28;1426;-75
2023/03/19 00:22:34;;;;;;;;;;;;;;;4.43;68.01;100172.97;343579;28;1376;-75
2023/03/19 00:22:45;;;;;;;;;;;;;;;4.43;68.13;100178.16;345872;28;856;-76
2023/03/19 00:22:55;;;;;;;;;;;;;;;4.43;67.85;100179.00;343571;28;1292;-76
2023/03/19 00:23:06;;;;;;;;;;;;;;;4.44;68.32;100169.50;343561;28;1746;-75
2023/03/19 00:23:16;;;;;;;;;;;;;;;4.42;68.29;100172.09;343424;28;1252;-76
2023/03/19 00:23:26;;;;;;;;;;;;;;;4.41;68.42;100180.75;343922;28;872;-75
2023/03/19 00:23:37;;;;;;;;;;;;;;;4.42;68.41;100181.63;344240;28;1418;-75
2023/03/19 00:23:47;;;;;;;;;;;;;;;4.42;68.11;100171.25;343332;28;1336;-75
2023/03/19 00:24:01;;;;;;;;;;;;;;;4.42;68.05;100177.28;343415;28;1267;-75
2023/03/19 00:24:11;;;;;;;;;;;;;;;4.43;68.33;100178.16;343735;28;1388;-75
2023/03/19 00:24:21;;;;;;;;;;;;;;;4.44;68.20;100174.69;342153;28;1119;-75
2023/03/19 00:24:32;;;;;;;;;;;;;;;4.44;68.23;100174.69;341822;28;1516;-75
2023/03/19 00:24:42;;;;;;;;;;;;;;;4.45;68.07;100179.00;339888;29;1357;-75
2023/03/19 00:24:52;;;;;;;;;;;;;;;4.45;68.26;100177.28;342351;28;1354;-76
2023/03/19 00:25:02;;;;;;;;;;;;;;;4.45;68.18;100173.81;340839;29;1212;-75
2023/03/19 00:25:13;;;;;;;;;;;;;;;4.45;68.42;100173.81;342112;28;1313;-76
2023/03/19 00:25:23;;;;;;;;;;;;;;;4.45;68.41;100181.59;338007;29;1302;-75
2023/03/19 00:25:34;;;;;;;;;;;;;;;4.45;68.37;100171.22;336995;29;1203;-77
2023/03/19 00:25:44;;;;;;;;;;;;;;;4.44;68.20;100177.28;335371;29;3753;-75
2023/03/19 00:25:54;;;;;;;;;;;;;;;4.45;68.45;100173.81;334969;29;3070;-75
2023/03/19 00:26:05;;;;;;;;;;;;;;;4.46;68.28;100172.94;337024;29;1722;-75
2023/03/19 00:26:15;;;;;;;;;;;;;;;4.46;68.40;100183.31;332969;29;1792;-75
2023/03/19 00:26:27;;;;;;;;;;;;;;;4.45;68.37;100172.09;329023;29;2010;-75
2023/03/19 00:26:37;;;;;;;;;;;;;;;4.46;68.57;100175.53;334743;29;831;-77
2023/03/19 00:26:47;;;;;;;;;;;;;;;4.47;68.22;100174.66;331872;29;2052;-75
2023/03/19 00:26:57;;;;;;;;;;;;;;;4.47;68.34;100174.66;330990;29;1716;-75
2023/03/19 00:27:08;;;;;;;;;;;;;;;4.47;68.31;100164.31;331854;29;1339;-76
2023/03/19 00:27:18;;;;;;;;;;;;;;;4.47;68.38;100169.50;330610;29;946;-76
2023/03/19 00:27:28;;;;;;;;;;;;;;;4.47;68.32;100166.91;328083;30;868;-75
2023/03/19 00:27:38;;;;;;;;;;;;;;;4.45;68.54;100169.50;327762;29;1522;-75
2023/03/19 00:27:49;;;;;;;;;;;;;;;4.44;68.32;100164.31;325897;30;817;-75
2023/03/19 00:27:59;;;;;;;;;;;;;;;4.43;68.27;100162.59;327165;29;1900;-75
2023/03/19 00:28:09;;;;;;;;;;;;;;;4.45;68.49;100166.03;327336;29;2430;-76
2023/03/19 00:28:20;;;;;;;;;;;;;;;4.45;68.38;100166.03;328092;30;1333;-76
2023/03/19 00:28:30;;;;;;;;;;;;;;;4.45;68.53;100166.03;327806;30;2656;-76
2023/03/19 00:28:40;;;;;;;;;;;;;;;4.45;68.33;100176.41;327022;29;2802;-76
2023/03/19 00:28:51;;;;;;;;;;;;;;;4.43;68.35;100168.66;327028;30;1381;-76
2023/03/19 00:29:01;;;;;;;;;;;;;;;4.44;68.55;100172.09;325456;30;2691;-76
2023/03/19 00:29:11;;;;;;;;;;;;;;;4.43;68.28;100165.19;326376;30;1786;-76
2023/03/19 00:29:22;;;;;;;;;;;;;;;4.41;68.85;100172.13;325842;30;1291;-75
2023/03/19 00:29:32;;;;;;;;;;;;;;;4.37;68.81;100167.81;324258;30;1564;-75
2023/03/19 00:29:43;;;;;;;;;;;;;;;4.37;68.77;100170.41;323900;30;1755;-75
2023/03/19 00:29:54;;;;;;;;;;;;;;;4.35;69.08;100173.88;325502;30;1313;-75
2023/03/19 00:30:04;;;;;;;;;;;;;;;4.33;68.76;100165.25;318773;31;1259;-76
2023/03/19 00:30:15;;;;;;;;;;;;;;;4.34;68.64;100174.75;313994;31;2522;-75
2023/03/19 00:30:25;;;;;;;;;;;;;;;4.32;68.97;100168.75;314329;30;3756;-75
2023/03/19 00:30:36;;;;;;;;;;;;;;;4.33;69.18;100170.44;319919;30;817;-76
2023/03/19 00:30:46;;;;;;;;;;;;;;;4.33;68.88;100172.19;319355;30;3107;-76
2023/03/19 00:30:56;;;;;;;;;;;;;;;4.33;69.09;100167.03;316647;31;3335;-76
2023/03/19 00:31:07;;;;;;;;;;;;;;;4.31;68.98;100166.16;314100;31;1227;-76
2023/03/19 00:31:17;;;;;;;;;;;;;;;4.32;69.22;100165.31;317802;31;3128;-77
2023/03/19 00:31:28;;;;;;;;;;;;;;;4.31;69.01;100172.22;319333;30;2343;-75
2023/03/19 00:31:39;;;;;;;;;;;;;;;4.32;68.95;100173.94;318833;31;940;-76
2023/03/19 00:31:50;;;;;;;;;;;;;;;4.33;68.80;100172.19;314121;31;1355;-76
2023/03/19 00:32:01;;;;;;;;;;;;;;;4.33;69.32;100169.59;313986;31;2458;-74
2023/03/19 00:32:11;;;;;;;;;;;;;;;4.33;69.27;100167.84;312586;31;2784;-74
2023/03/19 00:32:21;;;;;;;;;;;;;;;4.34;69.38;100166.13;310850;31;1193;-76
2023/03/19 00:32:32;;;;;;;;;;;;;;;4.33;68.99;100170.44;304124;31;4163;-75
2023/03/19 00:32:42;;;;;;;;;;;;;;;4.33;69.12;100167.84;304224;31;4088;-75
2023/03/19 00:32:53;;;;;;;;;;;;;;;4.33;69.17;100173.03;305414;32;1275;-76
2023/03/19 00:33:06;;;;;;;;;;;;;;;4.32;68.91;100166.16;303721;32;3861;-76
2023/03/19 00:33:16;;;;;;;;;;;;;;;4.32;69.04;100165.31;304482;32;4085;-75
2023/03/19 00:33:26;;;;;;;;;;;;;;;4.31;69.38;100169.63;304660;32;4469;-75
2023/03/19 00:33:37;;;;;;;;;;;;;;;4.30;69.16;100162.72;306484;32;1379;-76
2023/03/19 00:33:47;;;;;;;;;;;;;;;4.30;69.47;100165.31;302359;32;3496;-75
2023/03/19 00:33:57;;;;;;;;;;;;;;;4.30;68.98;100162.72;300271;32;2745;-75
2023/03/19 00:34:08;;;;;;;;;;;;;;;4.30;69.32;100162.72;297088;33;1228;-75
2023/03/19 00:34:19;;;;;;;;;;;;;;;4.30;69.07;100162.72;292258;33;936;-76
2023/03/19 00:34:29;;;;;;;;;;;;;;;4.30;69.20;100167.03;289489;33;4053;-76
2023/03/19 00:34:39;;;;;;;;;;;;;;;4.30;69.12;100160.13;287989;33;6069;-76
2023/03/19 00:34:49;;;;;;;;;;;;;;;4.30;69.05;100165.31;287441;34;3607;-76
2023/03/19 00:35:00;;;;;;;;;;;;;;;4.31;68.97;100164.44;286955;34;5968;-76
2023/03/19 00:35:10;;;;;;;;;;;;;;;4.31;69.11;100163.56;286393;34;6853;-76
2023/03/19 00:35:20;;;;;;;;;;;;;;;4.32;68.85;100166.16;286546;34;1035;-76
2023/03/19 00:35:31;;;;;;;;;;;;;;;4.32;68.93;100165.31;285099;34;6515;-77
2023/03/19 00:35:41;;;;;;;;;;;;;;;4.32;68.83;100162.72;283521;34;6596;-75
2023/03/19 00:35:52;;;;;;;;;;;;;;;4.31;69.15;100164.44;284916;34;1215;-75
2023/03/19 00:36:02;;;;;;;;;;;;;;;4.32;69.05;100163.56;282539;34;4763;-76
2023/03/19 00:36:12;;;;;;;;;;;;;;;4.32;69.13;100163.56;279784;35;4836;-74
2023/03/19 00:36:24;;;;;;;;;;;;;;;4.32;69.11;100160.97;281028;35;886;-75
2023/03/19 00:36:34;;;;;;;;;;;;;;;4.32;68.95;100160.13;279290;35;874;-75
2023/03/19 00:38:46;;;;;;;;;;;;;;;4.32;69.02;100163.56;2501150;27;20335;-77
2023/03/19 00:38:56;;;;;;;;;;;;;;;4.33;69.14;100161.84;354690;27;878;-75
2023/03/19 00:39:07;;;;;;;;;;;;;;;4.32;68.95;100158.38;353311;28;796;-75
2023/03/19 00:39:18;;;;;;;;;;;;;;;4.33;69.01;100162.66;351880;28;965;-75
2023/03/19 00:39:28;;;;;;;;;;;;;;;4.32;68.66;100155.78;351379;28;1230;-75
2023/03/19 00:39:38;;;;;;;;;;;;;;;4.33;68.90;100157.47;348946;28;1696;-76
2023/03/19 00:39:49;;;;;;;;;;;;;;;4.32;69.05;100154.94;350349;28;1310;-76
2023/03/19 00:39:59;;;;;;;;;;;;;;;4.32;68.97;100157.53;350493;28;1329;-75
2023/03/19 00:40:10;;;;;;;;;;;;;;;4.30;69.09;100152.34;349270;28;1429;-75
2023/03/19 00:40:20;;;;;;;;;;;;;;;4.31;69.19;100154.06;351827;28;894;-75
2023/03/19 00:40:31;;;;;;;;;;;;;;;4.30;69.02;100157.53;351931;28;867;-76
2023/03/19 00:40:41;;;;;;;;;;;;;;;4.30;69.18;100157.53;350481;28;1277;-75
2023/03/19 00:40:52;;;;;;;;;;;;;;;4.31;69.04;100158.41;350340;28;850;-76
2023/03/19 00:41:02;;;;;;;;;;;;;;;4.29;69.19;100154.97;350135;28;1218;-76
2023/03/19 00:41:12;;;;;;;;;;;;;;;4.29;69.39;100158.41;350730;28;1430;-76
2023/03/19 00:41:23;;;;;;;;;;;;;;;4.27;69.35;100157.56;350503;28;1306;-75
2023/03/19 00:41:33;;;;;;;;;;;;;;;4.24;69.59;100160.16;350386;28;1339;-75
2023/03/19 00:41:49;;;;;;;;;;;;;;;4.23;69.69;100155.84;350406;28;1399;-76
2023/03/19 00:41:59;;;;;;;;;;;;;;;4.21;69.38;100160.19;350380;28;1255;-76
2023/03/19 00:42:09;;;;;;;;;;;;;;;4.20;69.55;100162.78;348922;28;1579;-76
2023/03/19 00:42:20;;;;;;;;;;;;;;;4.20;69.67;100153.28;350549;28;824;-76
2023/03/19 00:42:30;;;;;;;;;;;;;;;4.21;69.62;100156.72;349038;28;1258;-76
2023/03/19 00:42:43;;;;;;;;;;;;;;;4.20;69.46;100161.06;348870;28;1368;-76
2023/03/19 00:42:53;;;;;;;;;;;;;;;4.21;69.31;100159.31;349038;28;860;-76
2023/03/19 00:43:03;;;;;;;;;;;;;;;4.21;69.36;100157.59;349076;28;876;-76
2023/03/19 00:43:14;;;;;;;;;;;;;;;4.22;69.41;100159.31;346312;28;1328;-75
2023/03/19 00:43:24;;;;;;;;;;;;;;;4.23;69.59;100162.75;347604;28;1262;-76
2023/03/19 00:43:37;;;;;;;;;;;;;;;4.22;69.48;100151.53;346488;28;1450;-75
2023/03/19 00:43:51;;;;;;;;;;;;;;;4.22;69.53;100155.88;345267;28;833;-77
2023/03/19 00:44:02;;;;;;;;;;;;;;;4.22;69.37;100159.31;344092;28;3931;-76
2023/03/19 00:44:12;;;;;;;;;;;;;;;4.22;69.22;100156.72;343439;28;1311;-78
2023/03/19 00:44:22;;;;;;;;;;;;;;;4.20;69.00;100150.69;344348;28;1241;-77
2023/03/19 00:44:33;;;;;;;;;;;;;;;4.19;69.17;100148.09;346236;28;1306;-76
2023/03/19 00:44:43;;;;;;;;;;;;;;;4.20;69.37;100155.88;348522;28;1033;-76
2023/03/19 00:44:53;;;;;;;;;;;;;;;4.20;69.03;100152.41;347099;28;1070;-75
2023/03/19 00:45:04;;;;;;;;;;;;;;;4.19;68.79;100153.28;343515;28;1388;-76
2023/03/19 00:45:15;;;;;;;;;;;;;;;4.19;68.89;100148.97;347322;28;1235;-77
2023/03/19 00:45:26;;;;;;;;;;;;;;;4.18;69.04;100148.97;347015;28;1247;-75
2023/03/19 00:45:36;;;;;;;;;;;;;;;4.18;69.18;100152.44;343620;28;1358;-77
2023/03/19 00:45:46;;;;;;;;;;;;;;;4.19;68.98;100153.28;343691;28;872;-77
2023/03/19 00:45:56;;;;;;;;;;;;;;;4.17;69.29;100150.72;343796;28;877;-76
2023/03/19 00:46:07;;;;;;;;;;;;;;;4.15;69.20;100152.44;343873;28;1197;-76
2023/03/19 00:46:17;;;;;;;;;;;;;;;4.14;69.50;100152.47;344975;28;1210;-76
2023/03/19 00:46:27;;;;;;;;;;;;;;;4.12;69.36;100147.28;346439;28;1274;-76
2023/03/19 00:46:37;;;;;;;;;;;;;;;4.10;69.05;100143.84;343558;28;1228;-76
2023/03/19 00:46:48;;;;;;;;;;;;;;;4.08;69.31;100150.75;340847;29;1391;-76
2023/03/19 00:46:58;;;;;;;;;;;;;;;4.08;69.69;100145.59;345468;28;1372;-76
2023/03/19 00:47:08;;;;;;;;;;;;;;;4.09;69.50;100146.44;345146;28;1290;-76
2023/03/19 00:47:18;;;;;;;;;;;;;;;4.08;69.31;100153.34;344828;28;1298;-76
2023/03/19 00:47:29;;;;;;;;;;;;;;;4.09;69.42;100147.31;345916;28;1505;-76
2023/03/19 00:47:39;;;;;;;;;;;;;;;4.09;69.45;100151.63;344624;28;1906;-76
2023/03/19 00:47:49;;;;;;;;;;;;;;;4.09;69.50;100151.63;340952;29;1326;-76
2023/03/19 00:48:00;;;;;;;;;;;;;;;4.10;69.37;100148.16;344779;28;1402;-76
2023/03/19 00:48:10;;;;;;;;;;;;;;;4.10;69.41;100140.41;343502;28;1436;-76
2023/03/19 00:48:20;;;;;;;;;;;;;;;4.11;69.32;100150.75;343610;28;1228;-77
2023/03/19 00:48:30;;;;;;;;;;;;;;;4.11;69.31;100148.16;342259;28;1027;-76
2023/03/19 00:48:41;;;;;;;;;;;;;;;4.12;69.14;100147.28;338534;29;1557;-76
2023/03/19 00:48:54;;;;;;;;;;;;;;;4.12;69.38;100146.44;337819;29;1765;-76
2023/03/19 00:49:04;;;;;;;;;;;;;;;4.10;69.45;100146.44;341257;28;1352;-76
2023/03/19 00:49:15;;;;;;;;;;;;;;;4.07;69.14;100148.19;341977;28;1772;-77
2023/03/19 00:49:25;;;;;;;;;;;;;;;4.08;69.67;100145.59;340619;28;1900;-76
2023/03/19 00:49:35;;;;;;;;;;;;;;;4.08;69.50;100145.59;336810;29;2089;-76
2023/03/19 00:49:46;;;;;;;;;;;;;;;4.08;69.43;100145.59;334502;29;1204;-75
2023/03/19 00:49:56;;;;;;;;;;;;;;;4.09;69.32;100147.31;334099;29;1637;-76
2023/03/19 00:50:07;;;;;;;;;;;;;;;4.09;69.54;100147.31;335569;29;1262;-76
2023/03/19 00:50:17;;;;;;;;;;;;;;;4.10;69.34;100149.03;334382;29;1364;-76
2023/03/19 00:50:27;;;;;;;;;;;;;;;4.11;69.34;100150.75;331496;29;1508;-76
2023/03/19 00:50:37;;;;;;;;;;;;;;;4.11;69.26;100144.69;332215;29;1637;-76
2023/03/19 00:50:48;;;;;;;;;;;;;;;4.11;69.26;100150.75;331923;29;811;-76
2023/03/19 00:51:16;;;;;;;;;;;;;;;4.12;69.19;100151.59;327993;29;2379;-76
2023/03/19 00:51:26;;;;;;;;;;;;;;;4.11;69.31;100139.53;325603;30;2422;-76
2023/03/19 00:51:36;;;;;;;;;;;;;;;4.11;69.31;100145.56;324379;30;2518;-76
2023/03/19 00:51:47;;;;;;;;;;;;;;;4.11;69.19;100144.69;322471;30;1323;-76
2023/03/19 00:51:57;;;;;;;;;;;;;;;4.09;69.23;100149.88;323116;30;2811;-76
2023/03/19 00:52:07;;;;;;;;;;;;;;;4.10;69.22;100154.19;322762;30;1955;-76
2023/03/19 00:52:17;;;;;;;;;;;;;;;4.10;69.23;100151.63;326958;30;1244;-76
2023/03/19 00:52:28;;;;;;;;;;;;;;;4.10;69.43;100145.56;322185;30;1696;-76
2023/03/19 00:52:38;;;;;;;;;;;;;;;4.09;69.16;100147.31;319390;30;2124;-76
2023/03/19 00:52:48;;;;;;;;;;;;;;;4.07;69.09;100143.84;318736;31;1280;-76
2023/03/19 00:52:58;;;;;;;;;;;;;;;4.08;69.01;100140.41;319445;30;3877;-76
2023/03/19 00:53:09;;;;;;;;;;;;;;;4.08;69.27;100140.41;319960;30;3251;-76
2023/03/19 00:53:19;;;;;;;;;;;;;;;4.09;69.38;100143.84;322289;30;794;-76
2023/03/19 00:53:29;;;;;;;;;;;;;;;4.08;69.18;100150.75;320371;30;3009;-76
2023/03/19 00:53:41;;;;;;;;;;;;;;;4.09;68.93;100142.13;317402;31;3457;-76
2023/03/19 00:53:51;;;;;;;;;;;;;;;4.08;69.06;100145.59;316936;31;3386;-76
2023/03/19 00:54:02;;;;;;;;;;;;;;;4.07;69.00;100143.00;314152;31;795;-78
2023/03/19 00:54:12;;;;;;;;;;;;;;;4.07;69.08;100140.41;314137;31;3201;-76
2023/03/19 00:54:22;;;;;;;;;;;;;;;4.07;68.98;100135.22;316004;31;2233;-76
2023/03/19 00:54:33;;;;;;;;;;;;;;;4.08;69.03;100142.13;314223;31;1289;-76
2023/03/19 00:54:43;;;;;;;;;;;;;;;4.07;69.01;100143.84;313735;31;2376;-76
2023/03/19 00:54:53;;;;;;;;;;;;;;;4.09;69.01;100138.66;311367;31;3049;-76
2023/03/19 00:55:04;;;;;;;;;;;;;;;4.09;69.03;100142.13;309630;31;1242;-76
2023/03/19 00:55:15;;;;;;;;;;;;;;;4.09;68.99;100139.53;305912;31;3700;-76
2023/03/19 00:55:26;;;;;;;;;;;;;;;4.10;68.79;100142.97;307078;31;4118;-76
2023/03/19 00:55:36;;;;;;;;;;;;;;;4.10;68.85;100137.81;306464;32;4519;-76
2023/03/19 00:55:46;;;;;;;;;;;;;;;4.10;68.72;100141.25;304416;32;1216;-76
2023/03/19 00:55:56;;;;;;;;;;;;;;;4.09;68.88;100142.13;305644;32;4446;-76
2023/03/19 00:56:07;;;;;;;;;;;;;;;4.10;68.83;100137.81;306502;31;4301;-76
2023/03/19 00:56:17;;;;;;;;;;;;;;;4.10;68.72;100135.22;310840;31;867;-76
2023/03/19 00:56:28;;;;;;;;;;;;;;;4.09;68.84;100143.84;302646;31;4362;-76
2023/03/19 00:56:38;;;;;;;;;;;;;;;4.07;68.70;100138.69;300515;32;3216;-76
2023/03/19 00:56:48;;;;;;;;;;;;;;;4.06;68.75;100134.38;306023;32;1166;-76
2023/03/19 00:56:58;;;;;;;;;;;;;;;4.05;68.73;100137.84;306727;32;3905;-76
2023/03/19 00:57:09;;;;;;;;;;;;;;;4.05;68.95;100135.25;303384;32;4879;-76
2023/03/19 00:57:19;;;;;;;;;;;;;;;4.04;68.99;100136.09;300317;32;1339;-76
2023/03/19 00:57:29;;;;;;;;;;;;;;;4.04;68.84;100141.28;304675;32;5622;-76
2023/03/19 00:57:40;;;;;;;;;;;;;;;4.04;68.91;100137.84;301012;32;6388;-76
2023/03/19 00:57:50;;;;;;;;;;;;;;;4.03;68.96;100139.56;304163;32;1326;-76
2023/03/19 00:58:00;;;;;;;;;;;;;;;4.04;68.62;100135.25;298769;33;1198;-76
2023/03/19 00:58:11;;;;;;;;;;;;;;;4.01;68.99;100141.31;297837;32;6262;-76
2023/03/19 00:58:21;;;;;;;;;;;;;;;4.01;69.03;100134.41;294967;33;5726;-75
2023/03/19 00:58:31;;;;;;;;;;;;;;;4.01;68.70;100144.75;295049;33;1333;-76
2023/03/19 00:58:41;;;;;;;;;;;;;;;4.01;68.79;100143.91;292073;33;6348;-76
2023/03/19 00:58:51;;;;;;;;;;;;;;;4.00;68.82;100137.00;290839;33;4684;-76
2023/03/19 00:59:02;;;;;;;;;;;;;;;3.97;68.94;100137.88;290598;34;1480;-76
2023/03/19 00:59:12;;;;;;;;;;;;;;;3.97;68.46;100140.47;289306;33;5887;-75
2023/03/19 00:59:24;;;;;;;;;;;;;;;3.97;68.70;100142.19;288071;34;7175;-76
2023/03/19 00:59:34;;;;;;;;;;;;;;;3.97;68.62;100139.59;288323;34;1206;-76
2023/03/19 00:59:44;;;;;;;;;;;;;;;3.98;68.47;100146.50;288036;34;7783;-76
2023/03/19 00:59:55;;;;;;;;;;;;;;;3.96;68.20;100138.75;285091;34;8572;-76
2023/03/19 01:00:05;;;;;;;;;;;;;;;3.98;68.25;100137.00;284502;34;1367;-76
2023/03/19 01:00:16;;;;;;;;;;;;;;;3.99;68.40;100140.44;282523;34;1302;-77
2023/03/19 01:00:27;;;;;;;;;;;;;;;3.99;68.41;100141.31;282307;34;10994;-75
2023/03/19 01:02:42;;;;;;;;;;;;;;;3.93;68.03;100140.47;2496430;27;20306;-76